Time;durP1;ratioP1;P1;durP2;ratioP2;P2;SDS_P1;SDS_P2;PMS_P1;PMS_P2;Temp;Humidity;BMP_temperature;BMP_pressure;BME280_temperature;BME280_humidity;BME280_pressure;Samples;Min_cycle;Max_cycle;Signal;HPM_P1;HPM_P2
2022/09/15 00:01:21;;;;;;;14.60;10.93;;;;;;;17.02;77.43;97098.75;5005230;28;20031;-69
2022/09/15 00:03:47;;;;;;;15.85;11.57;;;;;;;17.01;77.77;97091.63;5007611;28;20048;-69
2022/09/15 00:06:12;;;;;;;14.32;10.32;;;;;;;17.00;77.65;97081.72;5007957;28;20034;-70
2022/09/15 00:08:38;;;;;;;16.20;11.75;;;;;;;16.99;78.05;97080.09;5008209;28;20034;-70
2022/09/15 00:11:16;;;;;;;15.70;10.77;;;;;;;16.96;77.53;97074.16;5011040;28;20037;-69
2022/09/15 00:13:41;;;;;;;13.85;10.50;;;;;;;16.97;77.73;97074.97;5007412;28;20050;-69
2022/09/15 00:16:08;;;;;;;14.10;10.65;;;;;;;16.97;78.11;97083.25;5003046;28;20451;-69
2022/09/15 00:18:35;;;;;;;14.93;11.27;;;;;;;16.97;78.92;97080.50;5004656;28;20054;-69
2022/09/15 00:21:05;;;;;;;14.63;10.80;;;;;;;16.94;78.07;97083.97;5000001;28;20023;-69
2022/09/15 00:23:30;;;;;;;13.02;10.23;;;;;;;16.91;78.73;97079.97;5004126;28;20030;-69
2022/09/15 00:25:56;;;;;;;12.90;10.32;;;;;;;16.90;78.38;97080.34;5007580;28;20108;-69
2022/09/15 00:28:21;;;;;;;12.23;9.80;;;;;;;16.88;78.69;97068.84;5010155;28;20049;-70
2022/09/15 00:30:50;;;;;;;14.15;9.75;;;;;;;16.85;78.51;97062.09;5007868;28;20036;-70
2022/09/15 00:33:17;;;;;;;13.00;10.30;;;;;;;16.86;78.59;97051.81;5007489;28;20022;-70
2022/09/15 00:35:45;;;;;;;14.85;11.07;;;;;;;16.87;78.72;97061.72;5007443;28;20388;-69
2022/09/15 00:38:12;;;;;;;16.47;11.20;;;;;;;16.85;78.65;97061.28;5008157;28;20029;-70
2022/09/15 00:40:55;;;;;;;12.65;9.75;;;;;;;16.86;79.19;97068.41;5007290;28;20486;-70
2022/09/15 00:43:55;;;;;;;15.05;9.70;;;;;;;16.85;79.04;97056.56;5007641;28;20022;-70
2022/09/15 00:46:37;;;;;;;13.55;9.88;;;;;;;16.87;79.22;97061.72;5008376;28;20030;-70
2022/09/15 00:49:09;;;;;;;13.32;10.55;;;;;;;16.81;79.18;97044.63;5007680;28;20072;-70
2022/09/15 00:51:40;;;;;;;14.50;10.45;;;;;;;16.79;79.31;97046.97;5007535;28;20505;-70
2022/09/15 00:54:11;;;;;;;13.75;10.05;;;;;;;16.74;79.36;97042.53;5007056;28;20394;-69
2022/09/15 00:56:38;;;;;;;16.48;11.38;;;;;;;16.73;79.69;97026.31;5007631;28;20030;-70
2022/09/15 00:59:08;;;;;;;15.18;11.05;;;;;;;16.73;79.42;97026.31;5008304;28;20030;-69
2022/09/15 01:01:34;;;;;;;14.90;11.15;;;;;;;16.74;79.60;97016.84;5006067;28;20430;-69
2022/09/15 01:03:59;;;;;;;15.10;11.50;;;;;;;16.73;79.58;97018.00;5007716;28;20022;-69
2022/09/15 01:06:38;;;;;;;16.58;11.63;;;;;;;16.73;79.50;97021.56;5007742;28;20080;-69
2022/09/15 01:09:11;;;;;;;15.65;10.98;;;;;;;16.75;79.61;97029.50;5010342;28;20026;-70
2022/09/15 01:11:38;;;;;;;15.48;11.13;;;;;;;16.76;79.97;97031.88;5007518;28;20040;-69
2022/09/15 01:14:04;;;;;;;14.27;10.98;;;;;;;16.78;80.15;97035.09;5006968;28;20030;-70
2022/09/15 01:16:51;;;;;;;17.45;12.20;;;;;;;16.79;79.94;97039.44;5007832;28;20018;-70
2022/09/15 01:19:44;;;;;;;16.92;12.32;;;;;;;16.77;80.11;97029.94;5007562;28;20034;-70
2022/09/15 01:22:47;;;;;;;14.90;11.15;;;;;;;16.76;80.15;97023.59;5006228;28;20037;-70
2022/09/15 01:25:42;;;;;;;15.85;11.48;;;;;;;16.78;80.95;97028.75;5007618;28;20049;-69
2022/09/15 01:28:32;;;;;;;14.35;11.18;;;;;;;16.76;80.58;97022.78;5001969;28;20037;-70
2022/09/15 01:31:00;;;;;;;13.70;10.32;;;;;;;16.78;80.37;97021.25;5007598;28;20112;-70
2022/09/15 01:33:39;;;;;;;16.80;13.05;;;;;;;16.81;80.50;97023.25;5007463;28;20026;-70
2022/09/15 01:36:32;;;;;;;15.45;10.98;;;;;;;16.86;80.72;97024.13;5006319;28;20030;-70
2022/09/15 01:39:04;;;;;;;13.90;10.65;;;;;;;16.87;80.77;97026.53;5006710;28;20037;-70
2022/09/15 01:41:34;;;;;;;12.90;10.35;;;;;;;16.86;81.08;97022.16;5006726;28;20040;-69
2022/09/15 01:44:05;;;;;;;13.15;10.60;;;;;;;16.87;81.16;97017.41;5006111;28;20037;-70
2022/09/15 01:46:36;;;;;;;14.68;9.98;;;;;;;16.86;80.66;97013.84;5007007;28;20026;-70
2022/09/15 01:49:03;;;;;;;15.18;10.32;;;;;;;16.90;81.69;97005.59;5008408;28;20705;-70
2022/09/15 01:51:30;;;;;;;13.82;10.80;;;;;;;16.89;80.90;97004.00;5006802;28;20117;-70
2022/09/15 01:54:00;;;;;;;15.85;11.50;;;;;;;16.90;81.05;97006.41;5006129;28;20029;-70
2022/09/15 01:56:25;;;;;;;15.93;10.30;;;;;;;16.90;80.96;97002.81;5008434;28;20136;-70
2022/09/15 01:58:51;;;;;;;13.80;10.52;;;;;;;16.92;81.10;97001.25;5007282;28;20117;-70
2022/09/15 02:01:25;;;;;;;15.23;10.85;;;;;;;16.93;80.84;97002.84;5005613;28;20026;-70
2022/09/15 02:03:55;;;;;;;13.82;10.57;;;;;;;16.95;81.05;96994.19;5006459;28;20034;-70
2022/09/15 02:06:35;;;;;;;13.32;10.38;;;;;;;16.99;81.16;96994.25;5007003;28;20026;-70
2022/09/15 02:09:21;;;;;;;12.40;10.23;;;;;;;16.98;80.76;96992.66;5009748;28;20022;-70
2022/09/15 02:12:00;;;;;;;15.15;10.70;;;;;;;16.97;81.40;96991.88;5009394;28;20425;-70
2022/09/15 02:14:46;;;;;;;14.57;10.55;;;;;;;16.96;81.14;96982.75;5011974;28;20022;-70
2022/09/15 02:17:16;;;;;;;13.07;9.70;;;;;;;16.98;81.25;96984.34;5010767;28;20033;-70
2022/09/15 02:19:48;;;;;;;12.13;9.90;;;;;;;16.99;81.76;96992.31;5010516;28;20390;-69
2022/09/15 02:22:19;;;;;;;13.15;10.00;;;;;;;16.98;80.94;96985.16;5013041;28;20109;-68
2022/09/15 02:24:56;;;;;;;13.70;10.65;;;;;;;16.99;81.24;96985.94;5010930;28;20030;-69
2022/09/15 02:27:26;;;;;;;14.00;10.82;;;;;;;16.98;81.42;96987.94;5009923;28;20113;-68
2022/09/15 02:29:56;;;;;;;12.35;10.13;;;;;;;16.99;81.48;96978.47;5011210;28;20021;-68
2022/09/15 02:32:26;;;;;;;13.15;10.27;;;;;;;16.97;81.33;96986.34;5010841;28;20065;-69
2022/09/15 02:34:54;;;;;;;12.15;10.27;;;;;;;16.96;81.54;96988.28;5011349;28;20504;-69
2022/09/15 02:37:21;;;;;;;13.38;10.35;;;;;;;16.95;81.51;96992.22;5014297;28;20466;-69
2022/09/15 02:39:53;;;;;;;14.15;10.65;;;;;;;16.95;81.54;96983.13;5010894;28;20478;-69
2022/09/15 02:42:27;;;;;;;12.68;10.30;;;;;;;16.94;81.82;96973.22;5010213;28;20116;-68
2022/09/15 02:44:53;;;;;;;13.85;11.10;;;;;;;16.91;81.61;96969.19;5007799;28;20146;-68
2022/09/15 02:47:19;;;;;;;13.15;10.60;;;;;;;16.93;81.48;96977.16;5009837;28;20033;-69
2022/09/15 02:49:44;;;;;;;12.73;10.82;;;;;;;16.94;82.18;96970.44;5016856;28;20032;-68
2022/09/15 02:52:10;;;;;;;14.95;11.02;;;;;;;16.93;81.76;96968.84;5008115;28;20026;-68
2022/09/15 02:54:35;;;;;;;14.13;10.88;;;;;;;16.93;81.52;96974.38;5009272;28;20120;-68
2022/09/15 02:57:01;;;;;;;13.43;10.63;;;;;;;16.91;81.84;96971.97;5009430;28;20378;-69
2022/09/15 03:00:11;;;;;;;14.52;11.73;;;;;;;16.89;82.16;96962.47;5008010;28;20034;-68
2022/09/15 03:02:12;;;;;;;14.55;12.15;;;;;;;16.88;82.12;96966.41;5009402;28;20040;-68
2022/09/15 03:04:38;;;;;;;15.10;11.18;;;;;;;16.86;82.02;96968.75;5009404;28;20022;-68
2022/09/15 03:07:03;;;;;;;14.38;12.30;;;;;;;16.85;82.45;96972.69;5011766;28;20069;-68
2022/09/15 03:09:29;;;;;;;15.60;11.30;;;;;;;16.85;81.93;96973.50;5010335;28;20025;-68
2022/09/15 03:11:55;;;;;;;14.73;11.93;;;;;;;16.85;82.02;96967.97;5010635;28;20104;-68
2022/09/15 03:14:21;;;;;;;13.82;11.48;;;;;;;16.85;82.15;96959.66;5006058;28;20542;-68
2022/09/15 03:16:46;;;;;;;14.98;11.35;;;;;;;16.87;82.26;96973.09;5010184;28;20029;-68
2022/09/15 03:19:12;;;;;;;14.73;11.73;;;;;;;16.87;82.50;96976.69;5006788;28;20021;-68
2022/09/15 03:21:37;;;;;;;13.70;10.80;;;;;;;16.88;82.31;96967.22;5010147;28;20485;-68
2022/09/15 03:24:03;;;;;;;15.15;11.07;;;;;;;16.88;82.07;96964.44;5011504;28;20030;-68
2022/09/15 03:26:28;;;;;;;14.50;11.57;;;;;;;16.89;82.14;96960.50;5010631;28;20116;-68
2022/09/15 03:28:54;;;;;;;13.18;10.45;;;;;;;16.91;82.28;96963.66;5009047;28;20034;-68
2022/09/15 03:31:19;;;;;;;13.52;10.70;;;;;;;16.91;82.49;96963.66;5010416;28;20026;-68
2022/09/15 03:33:45;;;;;;;12.50;10.52;;;;;;;16.92;82.15;96956.16;5009167;28;20026;-68
2022/09/15 03:36:10;;;;;;;12.52;10.57;;;;;;;16.95;82.78;96952.66;5009969;28;20117;-68
2022/09/15 03:38:36;;;;;;;12.75;10.32;;;;;;;16.95;82.92;96956.19;5011800;28;20022;-68
2022/09/15 03:41:07;;;;;;;13.00;10.35;;;;;;;16.94;82.81;96957.38;5008950;28;20044;-68
2022/09/15 03:43:33;;;;;;;12.57;9.80;;;;;;;16.98;82.45;96948.34;5008665;28;20010;-68
2022/09/15 03:45:59;;;;;;;11.95;9.90;;;;;;;16.99;82.51;96948.00;5013849;28;20066;-68
2022/09/15 03:48:25;;;;;;;11.88;9.40;;;;;;;17.01;82.76;96951.19;5009641;28;20475;-68
2022/09/15 03:50:51;;;;;;;10.70;9.05;;;;;;;17.02;82.62;96940.88;5009799;28;20030;-69
2022/09/15 03:53:17;;;;;;;12.75;9.40;;;;;;;17.03;82.99;96945.25;5007956;28;20113;-68
2022/09/15 03:55:44;;;;;;;10.27;8.63;;;;;;;17.02;82.66;96938.94;5008376;28;20076;-68
2022/09/15 03:58:10;;;;;;;11.20;8.43;;;;;;;17.03;82.36;96939.72;5006403;28;20030;-68
2022/09/15 04:00:35;;;;;;;11.00;8.82;;;;;;;17.04;82.46;96946.84;5008484;28;20383;-68
2022/09/15 04:03:00;;;;;;;11.23;8.48;;;;;;;17.04;82.40;96942.13;5008072;28;20095;-69
2022/09/15 04:05:26;;;;;;;11.00;7.78;;;;;;;17.05;82.63;96942.91;5010350;28;20522;-69
2022/09/15 04:07:51;;;;;;;12.23;7.90;;;;;;;17.04;82.51;96938.53;5010155;28;20161;-69
2022/09/15 04:10:17;;;;;;;8.45;7.53;;;;;;;17.05;82.42;96934.59;5016996;28;20017;-68
2022/09/15 04:12:43;;;;;;;9.57;7.28;;;;;;;17.04;82.48;96936.59;5007953;28;20382;-68
2022/09/15 04:15:09;;;;;;;10.73;7.57;;;;;;;17.05;82.59;96948.44;5010846;28;20026;-68
2022/09/15 04:17:34;;;;;;;9.85;7.93;;;;;;;17.05;82.73;96931.81;5010776;28;20036;-68
2022/09/15 04:19:59;;;;;;;9.52;7.68;;;;;;;17.06;82.52;96938.97;5009860;28;20029;-68
2022/09/15 04:22:25;;;;;;;9.93;7.55;;;;;;;17.06;82.50;96937.00;5008505;28;20361;-68
2022/09/15 04:24:51;;;;;;;9.95;7.65;;;;;;;17.07;82.49;96937.78;5007189;28;20502;-68
2022/09/15 04:27:17;;;;;;;11.93;8.10;;;;;;;17.05;82.42;96929.06;5010655;28;20104;-68
2022/09/15 04:29:43;;;;;;;10.90;7.95;;;;;;;17.04;82.59;96936.59;5006093;28;20049;-68
2022/09/15 04:32:09;;;;;;;9.48;7.80;;;;;;;17.05;83.04;96940.13;5007824;28;20390;-68
2022/09/15 04:34:34;;;;;;;11.52;7.93;;;;;;;17.05;82.88;96929.06;5008319;28;20091;-68
2022/09/15 04:37:00;;;;;;;11.15;7.68;;;;;;;17.06;82.41;96938.97;5008861;28;20067;-69
2022/09/15 04:39:25;;;;;;;9.55;7.47;;;;;;;17.08;82.43;96933.84;5008085;28;20025;-68
2022/09/15 04:41:51;;;;;;;8.75;7.50;;;;;;;17.10;82.58;96935.09;5008032;28;20026;-68
2022/09/15 04:44:16;;;;;;;9.85;7.88;;;;;;;17.14;82.18;96929.56;5008974;28;20029;-69
2022/09/15 04:46:42;;;;;;;11.38;7.70;;;;;;;17.16;82.31;96923.63;5012337;28;20026;-68
2022/09/15 04:49:07;;;;;;;9.52;7.80;;;;;;;17.19;82.32;96928.44;5006957;28;20037;-68
2022/09/15 04:51:33;;;;;;;13.98;7.70;;;;;;;17.21;82.32;96921.34;5008647;28;20045;-69
2022/09/15 04:53:58;;;;;;;10.10;7.97;;;;;;;17.21;82.41;96915.00;5009612;28;20033;-67
2022/09/15 04:56:25;;;;;;;9.88;8.02;;;;;;;17.22;82.15;96911.06;5010124;28;20081;-67
2022/09/15 04:58:53;;;;;;;10.50;8.63;;;;;;;17.23;82.07;96913.47;5009641;28;20033;-68
2022/09/15 05:01:25;;;;;;;10.35;7.75;;;;;;;17.25;82.26;96921.38;5007898;28;20396;-67
2022/09/15 05:03:51;;;;;;;10.40;8.02;;;;;;;17.28;82.29;96928.16;5013714;28;20404;-68
2022/09/15 05:06:20;;;;;;;11.35;8.02;;;;;;;17.27;82.61;96916.25;5020167;28;20128;-68
2022/09/15 05:08:50;;;;;;;8.88;7.80;;;;;;;17.25;82.10;96919.44;5024096;28;20065;-68
2022/09/15 05:11:16;;;;;;;16.50;9.88;;;;;;;17.30;82.25;96925.81;5014861;28;20029;-68
2022/09/15 05:13:41;;;;;;;10.73;8.77;;;;;;;17.32;82.15;96923.47;5012323;28;20037;-68
2022/09/15 05:16:10;;;;;;;12.13;8.85;;;;;;;17.32;82.48;96924.25;5005129;28;20045;-68
2022/09/15 05:18:36;;;;;;;11.23;8.30;;;;;;;17.33;82.03;96919.47;5021375;28;20464;-69
2022/09/15 05:21:04;;;;;;;10.40;7.97;;;;;;;17.36;82.12;96927.03;5006027;28;20117;-69
2022/09/15 05:23:29;;;;;;;9.52;7.45;;;;;;;17.39;82.25;96924.31;5023486;28;20052;-69
2022/09/15 05:26:00;;;;;;;8.95;6.85;;;;;;;17.42;82.06;96928.28;5015438;28;20065;-69
2022/09/15 05:28:27;;;;;;;8.07;6.50;;;;;;;17.46;82.34;96942.22;5019539;28;20104;-67
2022/09/15 05:30:53;;;;;;;9.23;6.47;;;;;;;17.50;82.57;96940.28;5026533;28;20127;-69
2022/09/15 05:33:20;;;;;;;9.48;5.97;;;;;;;17.51;82.07;96939.88;5027833;28;20500;-69
2022/09/15 05:35:59;;;;;;;8.27;6.70;;;;;;;17.53;82.12;96953.34;5028555;28;20071;-69
2022/09/15 05:38:27;;;;;;;10.07;7.55;;;;;;;17.54;82.07;96947.44;5023830;28;20104;-69
2022/09/15 05:40:52;;;;;;;7.15;5.82;;;;;;;17.57;82.08;96951.41;5011864;28;20029;-69
2022/09/15 05:43:19;;;;;;;19.38;12.05;;;;;;;17.59;81.66;96959.38;5025185;28;20109;-69
2022/09/15 05:45:53;;;;;;;8.10;6.28;;;;;;;17.61;82.03;96951.47;5014992;28;20113;-68
2022/09/15 05:48:19;;;;;;;5.18;4.68;;;;;;;17.60;81.94;96975.59;5014709;28;20038;-68
2022/09/15 05:50:50;;;;;;;6.45;5.32;;;;;;;17.61;82.07;96984.72;5004357;28;20509;-69
2022/09/15 05:53:16;;;;;;;6.82;4.88;;;;;;;17.60;81.62;96991.44;5003727;28;20642;-69
2022/09/15 05:55:41;;;;;;;5.07;4.57;;;;;;;17.52;81.46;97001.66;5005340;28;20413;-70
2022/09/15 05:58:07;;;;;;;5.78;4.13;;;;;;;17.42;81.44;97003.13;5006827;28;20471;-68
2022/09/15 06:00:32;;;;;;;4.15;3.65;;;;;;;17.35;81.45;97014.13;5010041;28;20034;-68
2022/09/15 06:02:58;;;;;;;2.80;2.53;;;;;;;17.30;81.75;97015.25;5013531;28;20025;-69
2022/09/15 06:05:23;;;;;;;2.50;2.17;;;;;;;17.19;81.65;97036.47;5008899;28;20416;-69
2022/09/15 06:07:52;;;;;;;2.17;1.98;;;;;;;17.07;81.46;97030.00;5008336;28;20061;-68
2022/09/15 06:10:18;;;;;;;3.30;2.22;;;;;;;16.98;81.35;97039.75;5008426;28;20038;-69
2022/09/15 06:12:43;;;;;;;1.90;1.50;;;;;;;16.91;81.65;97052.28;5012727;28;20026;-69
2022/09/15 06:15:09;;;;;;;1.60;1.40;;;;;;;16.84;81.78;97060.50;5013197;28;20405;-70
2022/09/15 06:17:34;;;;;;;1.67;1.27;;;;;;;16.73;81.60;97074.16;5008431;28;20030;-69
2022/09/15 06:20:00;;;;;;;1.35;1.20;;;;;;;16.65;81.81;97070.47;5012638;28;20033;-69
2022/09/15 06:22:26;;;;;;;1.73;1.20;;;;;;;16.59;81.69;97083.03;5006560;28;20710;-70
2022/09/15 06:24:52;;;;;;;1.83;1.00;;;;;;;16.52;81.61;97086.50;5005377;28;20172;-70
2022/09/15 06:27:18;;;;;;;1.67;1.02;;;;;;;16.46;81.79;97085.19;5006372;28;20109;-69
2022/09/15 06:29:43;;;;;;;1.33;0.90;;;;;;;16.40;81.88;97097.72;5009143;28;20021;-68
2022/09/15 06:32:09;;;;;;;1.35;0.90;;;;;;;16.36;81.63;97099.63;5018501;28;20095;-69
2022/09/15 06:34:34;;;;;;;0.95;0.95;;;;;;;16.34;81.69;97105.56;5019930;28;20041;-68
2022/09/15 06:37:00;;;;;;;0.80;0.80;;;;;;;16.31;81.64;97100.75;5020981;28;20033;-68
2022/09/15 06:39:26;;;;;;;1.13;0.77;;;;;;;16.31;81.56;97095.22;5012482;28;20100;-68
2022/09/15 06:41:51;;;;;;;0.90;0.80;;;;;;;16.29;81.69;97111.38;5009566;28;20030;-68
2022/09/15 06:44:20;;;;;;;1.13;0.95;;;;;;;16.29;81.60;97119.69;5008584;28;20030;-69
2022/09/15 06:46:46;;;;;;;0.90;0.88;;;;;;;16.31;81.97;97133.94;5009635;28;20497;-68
2022/09/15 06:49:11;;;;;;;1.63;1.52;;;;;;;16.33;81.59;97141.88;5009163;28;20037;-68
2022/09/15 06:51:37;;;;;;;2.05;0.98;;;;;;;16.36;82.00;97150.25;5009328;28;20030;-69
2022/09/15 06:54:04;;;;;;;1.75;1.30;;;;;;;16.34;81.65;97155.34;5002987;28;20120;-68
2022/09/15 06:56:30;;;;;;;1.00;0.90;;;;;;;16.36;82.00;97158.56;5013675;28;20080;-69
2022/09/15 06:58:55;;;;;;;1.23;0.80;;;;;;;16.42;82.57;97166.56;5012577;28;20033;-69
2022/09/15 07:01:30;;;;;;;1.10;1.00;;;;;;;16.49;81.63;97172.22;5012076;28;20025;-68
2022/09/15 07:03:57;;;;;;;1.05;0.88;;;;;;;16.55;81.83;97173.50;5012726;28;20025;-70
2022/09/15 07:06:23;;;;;;;3.75;1.48;;;;;;;16.60;82.13;97178.72;5012705;28;20022;-69
2022/09/15 07:08:52;;;;;;;3.65;2.20;;;;;;;16.65;81.79;97186.75;5013158;28;20050;-68
2022/09/15 07:11:18;;;;;;;4.43;2.00;;;;;;;16.70;81.73;97202.25;5012900;28;20064;-67
2022/09/15 07:13:44;;;;;;;2.17;1.27;;;;;;;16.76;81.95;97197.22;5012541;28;20058;-68
2022/09/15 07:16:11;;;;;;;1.10;0.90;;;;;;;16.80;81.69;97207.16;5020587;28;20104;-69
2022/09/15 07:18:37;;;;;;;1.40;0.90;;;;;;;16.81;81.72;97214.31;5016543;28;20116;-68
2022/09/15 07:21:06;;;;;;;1.45;1.15;;;;;;;16.81;81.84;97216.28;5012338;28;20148;-67
2022/09/15 07:23:32;;;;;;;1.15;1.00;;;;;;;16.82;81.56;97223.44;5011893;28;20026;-68
2022/09/15 07:26:10;;;;;;;2.70;1.08;;;;;;;16.84;81.23;97223.88;5012464;28;20037;-67
2022/09/15 07:28:36;;;;;;;0.95;0.82;;;;;;;16.83;81.26;97230.56;5012361;28;20022;-67
2022/09/15 07:31:03;;;;;;;2.75;1.20;;;;;;;16.83;81.41;97244.41;5022811;28;20072;-70
2022/09/15 07:33:29;;;;;;;1.95;1.20;;;;;;;16.86;81.09;97245.63;5005689;28;20041;-70
2022/09/15 07:35:54;;;;;;;1.20;1.10;;;;;;;16.90;81.24;97250.09;5015780;28;20163;-69
2022/09/15 07:38:20;;;;;;;0.95;0.80;;;;;;;16.98;81.11;97255.75;5005849;28;20036;-69
2022/09/15 07:40:45;;;;;;;1.08;0.70;;;;;;;17.03;81.20;97259.03;5012889;28;20440;-71
2022/09/15 07:43:11;;;;;;;2.35;0.90;;;;;;;17.07;81.25;97267.41;5016353;28;20145;-70
2022/09/15 07:45:37;;;;;;;1.00;0.90;;;;;;;17.10;81.29;97273.03;5010027;28;20034;-69
2022/09/15 07:48:02;;;;;;;1.30;0.82;;;;;;;17.17;81.01;97283.41;5007810;28;20025;-70
2022/09/15 07:50:28;;;;;;;1.63;0.80;;;;;;;17.23;81.04;97294.97;5009017;28;20033;-70
2022/09/15 07:52:57;;;;;;;1.00;0.90;;;;;;;17.25;80.85;97287.91;5017567;28;20076;-68
2022/09/15 07:55:23;;;;;;;1.63;0.90;;;;;;;17.29;80.66;97292.72;5012671;28;20482;-69
2022/09/15 07:57:59;;;;;;;1.00;0.70;;;;;;;17.28;80.54;97299.44;5009253;28;20026;-69
2022/09/15 08:00:25;;;;;;;0.80;0.80;;;;;;;17.29;80.69;97301.03;5016654;28;20025;-69
2022/09/15 08:02:51;;;;;;;1.15;0.88;;;;;;;17.31;80.53;97310.56;5007801;28;20462;-68
2022/09/15 08:05:16;;;;;;;1.02;0.93;;;;;;;17.29;80.46;97317.66;5007161;28;20512;-69
2022/09/15 08:07:42;;;;;;;1.00;0.90;;;;;;;17.28;80.28;97327.94;5015147;28;20099;-69
2022/09/15 08:10:09;;;;;;;1.08;0.80;;;;;;;17.29;80.34;97329.53;5009168;28;20112;-69
2022/09/15 08:12:35;;;;;;;0.70;0.70;;;;;;;17.33;80.44;97332.34;5011207;28;20034;-69
2022/09/15 08:15:01;;;;;;;1.92;0.70;;;;;;;17.34;80.48;97329.22;5010520;28;20069;-69
2022/09/15 08:17:27;;;;;;;1.00;0.90;;;;;;;17.37;80.32;97333.22;5010541;28;20168;-68
2022/09/15 08:19:52;;;;;;;1.80;0.82;;;;;;;17.36;80.10;97332.44;5010506;28;20128;-68
2022/09/15 08:22:17;;;;;;;1.40;0.90;;;;;;;17.37;80.15;97325.72;5013214;28;20029;-69
2022/09/15 08:24:43;;;;;;;1.10;0.98;;;;;;;17.42;80.25;97324.59;5029168;28;20044;-68
2022/09/15 08:27:09;;;;;;;0.90;0.80;;;;;;;17.45;80.06;97323.09;5015597;28;20029;-68
2022/09/15 08:29:34;;;;;;;1.80;1.10;;;;;;;17.50;80.26;97331.88;5029731;28;20112;-68
2022/09/15 08:32:00;;;;;;;2.45;1.55;;;;;;;17.52;80.16;97318.44;5013806;28;20105;-69
2022/09/15 08:34:27;;;;;;;2.10;1.30;;;;;;;17.56;80.26;97316.53;5010909;28;20042;-69
2022/09/15 08:36:52;;;;;;;2.55;1.30;;;;;;;17.60;80.19;97329.66;5016789;28;20065;-69
2022/09/15 08:39:18;;;;;;;1.77;1.13;;;;;;;17.66;80.12;97331.75;5018267;28;20529;-69
2022/09/15 08:41:47;;;;;;;2.15;1.25;;;;;;;17.68;80.15;97348.03;5018636;28;20476;-69
2022/09/15 08:44:23;;;;;;;2.42;1.85;;;;;;;17.66;79.93;97350.38;5018131;28;20037;-69
2022/09/15 08:47:09;;;;;;;2.55;1.60;;;;;;;17.70;80.25;97348.44;5015047;28;20553;-69
2022/09/15 08:49:57;;;;;;;1.50;1.40;;;;;;;17.71;80.03;97333.41;5024399;28;20136;-69
2022/09/15 08:52:44;;;;;;;3.03;1.93;;;;;;;17.76;79.79;97335.84;4987796;28;20049;-69
2022/09/15 08:55:48;;;;;;;2.80;2.30;;;;;;;17.79;79.77;97345.41;5012451;28;20049;-69
2022/09/15 08:58:19;;;;;;;2.92;2.30;;;;;;;17.82;79.74;97337.13;5007908;28;20038;-69
2022/09/15 09:00:50;;;;;;;3.40;2.63;;;;;;;17.89;79.86;97342.00;5016003;28;20018;-68
2022/09/15 09:03:37;;;;;;;2.80;2.40;;;;;;;17.94;79.96;97343.66;5028872;28;20021;-68
2022/09/15 09:06:15;;;;;;;3.13;2.65;;;;;;;17.95;79.93;97334.94;5020508;28;20064;-68
2022/09/15 09:08:54;;;;;;;2.55;2.35;;;;;;;17.98;79.86;97325.88;5020450;28;20120;-68
2022/09/15 09:11:45;;;;;;;3.58;3.20;;;;;;;18.00;79.64;97331.09;5013035;28;20717;-69
2022/09/15 09:14:28;;;;;;;3.75;3.10;;;;;;;18.03;79.41;97332.31;5023095;28;20061;-68
2022/09/15 09:17:06;;;;;;;3.33;2.97;;;;;;;18.06;79.46;97340.72;5006716;28;20073;-69
2022/09/15 09:19:53;;;;;;;4.93;3.88;;;;;;;18.13;79.39;97337.22;5007284;28;20044;-69
2022/09/15 09:22:29;;;;;;;4.43;3.75;;;;;;;18.18;79.51;97333.31;5005116;28;20029;-69
2022/09/15 09:24:56;;;;;;;4.88;4.15;;;;;;;18.21;79.30;97333.41;5013542;28;20128;-69
2022/09/15 09:27:27;;;;;;;5.13;4.13;;;;;;;18.23;79.10;97331.03;5022951;28;20053;-68
2022/09/15 09:30:00;;;;;;;4.95;3.28;;;;;;;18.23;79.15;97341.34;5024000;28;20065;-69
2022/09/15 09:32:39;;;;;;;5.60;4.22;;;;;;;18.22;79.01;97340.53;5028741;28;20035;-68
2022/09/15 09:35:30;;;;;;;5.07;4.10;;;;;;;18.15;78.80;97340.44;5028803;28;20065;-69
2022/09/15 09:37:58;;;;;;;5.95;4.07;;;;;;;18.17;78.77;97334.50;5003324;28;20054;-68
2022/09/15 09:40:25;;;;;;;4.75;3.95;;;;;;;18.19;78.71;97341.28;5011951;28;20033;-69
2022/09/15 09:42:51;;;;;;;5.70;4.63;;;;;;;18.20;78.90;97342.91;5011800;28;20028;-69
2022/09/15 09:45:18;;;;;;;5.95;4.90;;;;;;;18.20;79.02;97340.13;5022316;28;20073;-69
2022/09/15 09:47:45;;;;;;;6.45;4.70;;;;;;;18.13;78.53;97349.16;5009054;28;20034;-69
2022/09/15 09:50:37;;;;;;;5.57;4.35;;;;;;;18.09;78.40;97342.75;5009458;28;20076;-69
2022/09/15 09:53:27;;;;;;;6.00;4.35;;;;;;;18.03;78.33;97338.69;5008888;28;20034;-69
2022/09/15 09:55:54;;;;;;;6.25;4.10;;;;;;;18.00;78.23;97336.66;5008973;28;20033;-69
2022/09/15 09:58:23;;;;;;;5.88;3.90;;;;;;;17.98;78.18;97333.44;5008948;28;20033;-69
2022/09/15 10:00:50;;;;;;;6.63;3.92;;;;;;;17.96;78.65;97321.91;5011169;28;20026;-69
2022/09/15 10:03:15;;;;;;;6.97;4.30;;;;;;;17.98;78.38;97328.66;5008528;28;20033;-69
2022/09/15 10:05:42;;;;;;;6.78;4.20;;;;;;;17.98;78.26;97320.34;5007389;28;20366;-69
2022/09/15 10:08:19;;;;;;;5.05;3.70;;;;;;;17.99;78.29;97327.53;5021343;28;20124;-68
2022/09/15 10:10:58;;;;;;;6.20;4.43;;;;;;;18.01;78.32;97321.63;5008623;28;20030;-69
2022/09/15 10:13:25;;;;;;;;;;;;;;;18.03;78.21;97324.00;5008494;28;20031;-69
2022/09/15 10:15:54;;;;;;;5.63;3.90;;;;;;;18.03;78.31;97310.13;5009078;28;20388;-69
2022/09/15 10:18:33;;;;;;;6.65;4.35;;;;;;;18.07;78.34;97317.34;5008737;28;20022;-69
2022/09/15 10:21:00;;;;;;;5.38;3.60;;;;;;;18.08;78.20;97318.13;5009040;28;20117;-69
2022/09/15 10:23:31;;;;;;;6.57;3.90;;;;;;;18.09;78.15;97325.28;5008528;28;20794;-68
2022/09/15 10:26:16;;;;;;;5.18;3.97;;;;;;;18.03;77.88;97327.59;5008737;28;20053;-69
2022/09/15 10:28:43;;;;;;;5.97;3.78;;;;;;;17.95;77.87;97323.84;5012772;28;20030;-69
2022/09/15 10:31:26;;;;;;;5.70;3.85;;;;;;;17.94;77.93;97321.47;5012578;28;20022;-69
2022/09/15 10:33:51;;;;;;;6.30;4.70;;;;;;;17.89;77.62;97319.00;5026721;28;20021;-69
2022/09/15 10:36:22;;;;;;;5.57;4.35;;;;;;;17.81;77.59;97324.44;5032102;28;20075;-69
2022/09/15 10:38:54;;;;;;;6.32;3.72;;;;;;;17.75;77.83;97314.06;5031760;28;20029;-69
2022/09/15 10:41:27;;;;;;;8.10;4.00;;;;;;;17.64;77.40;97316.66;5016016;28;20445;-69
2022/09/15 10:44:05;;;;;;;6.45;4.35;;;;;;;17.55;77.46;97317.72;5017723;28;20077;-70
2022/09/15 10:46:53;;;;;;;5.30;4.03;;;;;;;17.41;77.54;97315.50;5018770;28;20045;-69
2022/09/15 10:49:40;;;;;;;6.25;3.90;;;;;;;17.31;77.49;97313.34;5001610;28;20065;-69
2022/09/15 10:52:27;;;;;;;5.75;4.28;;;;;;;17.22;77.54;97310.00;5015973;28;20038;-70
2022/09/15 10:55:02;;;;;;;4.53;3.88;;;;;;;17.24;77.73;97305.72;5013337;28;20045;-71
2022/09/15 10:57:53;;;;;;;4.55;4.15;;;;;;;17.30;77.89;97310.94;5029005;28;20068;-70
2022/09/15 11:00:24;;;;;;;6.40;4.80;;;;;;;17.35;77.89;97300.34;5009903;28;20018;-71
2022/09/15 11:02:58;;;;;;;5.43;4.40;;;;;;;17.38;77.83;97304.34;5013242;28;20076;-70
2022/09/15 11:05:32;;;;;;;5.35;4.43;;;;;;;17.39;77.98;97308.72;5014697;28;20033;-69
2022/09/15 11:08:17;;;;;;;8.43;5.88;;;;;;;17.39;77.93;97311.47;5007333;28;20052;-68
2022/09/15 11:11:04;;;;;;;7.25;5.40;;;;;;;17.36;77.66;97312.22;5021945;28;20037;-69
2022/09/15 11:13:32;;;;;;;5.90;4.97;;;;;;;17.34;77.72;97312.59;5027372;28;20026;-69
2022/09/15 11:16:16;;;;;;;5.53;4.18;;;;;;;17.34;77.78;97309.03;5016225;28;20437;-69
2022/09/15 11:19:00;;;;;;;6.50;4.75;;;;;;;17.30;77.72;97306.19;5011348;28;20038;-69
2022/09/15 11:21:38;;;;;;;6.50;4.47;;;;;;;17.20;77.47;97304.84;5013599;28;20025;-70
2022/09/15 11:24:43;;;;;;;5.85;4.82;;;;;;;17.16;77.68;97290.13;5031482;28;20107;-70
2022/09/15 11:27:26;;;;;;;5.40;4.07;;;;;;;17.15;77.75;97291.31;5030478;28;20038;-70
2022/09/15 11:30:13;;;;;;;12.82;8.20;;;;;;;17.17;77.76;97290.91;5031294;28;20462;-70
2022/09/15 11:32:50;;;;;;;20.33;9.93;;;;;;;17.19;77.86;97278.31;5030970;28;20167;-70
2022/09/15 11:35:46;;;;;;;14.48;7.20;;;;;;;17.21;77.82;97262.13;5031019;28;20029;-69
2022/09/15 11:39:06;;;;;;;8.13;5.35;;;;;;;17.21;77.65;97272.38;5024747;28;20032;-69
2022/09/15 11:41:48;;;;;;;7.13;5.32;;;;;;;17.20;77.78;97260.53;4958404;28;20117;-69
2022/09/15 11:44:32;;;;;;;6.72;4.63;;;;;;;17.16;77.54;97251.34;5026818;28;20033;-69